Time;durP1;ratioP1;P1;durP2;ratioP2;P2;SDS_P1;SDS_P2;PMS_P1;PMS_P2;Temp;Humidity;BMP_temperature;BMP_pressure;BME280_temperature;BME280_humidity;BME280_pressure;Samples;Min_cycle;Max_cycle;Signal;HPM_P1;HPM_P2
2022/03/13 00:02:05;;;;;;;;;;;25.80;1484.80;;;;;;6243065;22;19910;-86
2022/03/13 00:04:32;;;;;;;;;;;25.80;1484.80;;;;;;6269758;23;19919;-86
2022/03/13 00:07:09;;;;;;;;;;;25.80;1484.80;;;;;;6268944;22;19922;-87
2022/03/13 00:10:07;;;;;;;;;;;25.80;1459.20;;;;;;6265534;23;19903;-86
2022/03/13 00:12:55;;;;;;;;;;;25.70;1433.60;;;;;;6241026;23;19899;-85
2022/03/13 00:15:35;;;;;;;;;;;25.70;1433.60;;;;;;6244183;22;20240;-86
2022/03/13 00:18:13;;;;;;;;;;;25.60;1433.60;;;;;;6244515;23;19903;-86
2022/03/13 00:20:48;;;;;;;;;;;25.60;1433.60;;;;;;6270615;22;19908;-86
2022/03/13 00:23:36;;;;;;;;;;;25.60;1408.00;;;;;;6237619;23;19904;-86
2022/03/13 00:26:05;;;;;;;;;;;0.70;1484.80;;;;;;6177309;23;19916;-85
2022/03/13 00:28:49;;;;;;;;;;;12.90;1536.00;;;;;;6152959;23;20438;-86
2022/03/13 08:38:51;;;;;;;;;;;461.10;640.00;;;;;;6246476;22;19922;-91
2022/03/13 08:41:16;;;;;;;;;;;487.20;614.40;;;;;;6248630;23;19935;-89
2022/03/13 08:43:42;;;;;;;;;;;537.80;588.80;;;;;;6222117;23;19900;-90
2022/03/13 08:46:09;;;;;;;;;;;563.20;563.20;;;;;;6222012;23;19911;-91
2022/03/13 08:48:35;;;;;;;;;;;588.80;512.00;;;;;;6222054;23;19906;-91
2022/03/13 08:51:02;;;;;;;;;;;589.20;486.40;;;;;;6248511;23;19907;-87
2022/03/13 08:53:27;;;;;;;;;;;614.40;460.80;;;;;;6221329;23;19904;-87
2022/03/13 08:55:53;;;;;;;;;;;614.90;435.20;;;;;;6248168;23;19911;-86
2022/03/13 08:58:18;;;;;;;;;;;640.20;435.20;;;;;;6247970;23;19907;-87
2022/03/13 09:00:44;;;;;;;;;;;665.60;460.80;;;;;;6220685;23;19953;-86
2022/03/13 09:03:10;;;;;;;;;;;666.40;409.60;;;;;;6247630;23;19899;-85
2022/03/13 09:05:35;;;;;;;;;;;691.30;409.60;;;;;;6221293;23;19900;-86
2022/03/13 09:08:01;;;;;;;;;;;692.00;384.00;;;;;;6221226;23;19900;-85
2022/03/13 09:10:27;;;;;;;;;;;717.20;384.00;;;;;;6221600;23;19903;-86
2022/03/13 09:12:53;;;;;;;;;;;717.40;358.40;;;;;;6221458;23;20296;-86
2022/03/13 09:15:19;;;;;;;;;;;742.90;358.40;;;;;;6221358;23;20214;-87
2022/03/13 09:17:53;;;;;;;;;;;743.00;358.40;;;;;;6248408;23;19899;-87
2022/03/13 09:20:19;;;;;;;;;;;743.00;332.80;;;;;;6248034;23;19906;-86
2022/03/13 09:22:45;;;;;;;;;;;768.60;332.80;;;;;;6221030;23;19986;-87
2022/03/13 09:25:10;;;;;;;;;;;768.80;307.20;;;;;;6220750;23;19899;-87
2022/03/13 09:27:36;;;;;;;;;;;768.20;307.20;;;;;;6247228;23;20306;-85
2022/03/13 09:30:02;;;;;;;;;;;793.60;332.80;;;;;;6220793;23;19954;-85
2022/03/13 09:32:28;;;;;;;;;;;793.60;332.80;;;;;;6220636;23;20240;-85
2022/03/13 09:34:54;;;;;;;;;;;794.10;332.80;;;;;;6220595;23;20522;-87
2022/03/13 09:37:21;;;;;;;;;;;819.90;307.20;;;;;;6220769;23;19907;-86
2022/03/13 09:39:46;;;;;;;;;;;845.60;281.60;;;;;;6220827;23;19904;-87
2022/03/13 09:42:12;;;;;;;;;;;870.90;281.60;;;;;;6247523;23;19954;-87
2022/03/13 09:44:38;;;;;;;;;;;871.20;281.60;;;;;;6220398;23;19978;-85
2022/03/13 09:47:05;;;;;;;;;;;896.20;256.00;;;;;;6220243;23;19931;-86
2022/03/13 09:49:31;;;;;;;;;;;896.00;256.00;;;;;;6220592;23;20228;-87
2022/03/13 09:51:57;;;;;;;;;;;871.00;256.00;;;;;;6221055;23;19899;-88
2022/03/13 09:54:22;;;;;;;;;;;896.40;256.00;;;;;;6220516;23;19914;-84
2022/03/13 09:56:48;;;;;;;;;;;921.70;281.60;;;;;;6220439;23;19899;-85
2022/03/13 09:59:14;;;;;;;;;;;922.00;281.60;;;;;;6220501;23;19899;-89
2022/03/13 10:01:40;;;;;;;;;;;947.20;281.60;;;;;;6220388;23;20305;-86
2022/03/13 10:04:06;;;;;;;;;;;947.50;281.60;;;;;;6220486;23;19904;-86
2022/03/13 10:06:33;;;;;;;;;;;972.90;307.20;;;;;;6220278;23;19945;-87
2022/03/13 10:08:59;;;;;;;;;;;973.30;307.20;;;;;;6220154;23;19899;-85
2022/03/13 10:11:34;;;;;;;;;;;998.40;332.80;;;;;;6246599;23;19906;-89
2022/03/13 10:14:06;;;;;;;;;;;998.50;332.80;;;;;;6246691;23;19959;-87
2022/03/13 10:16:36;;;;;;;;;;;998.90;332.80;;;;;;6219826;23;19954;-84
2022/03/13 10:19:24;;;;;;;;;;;998.90;332.80;;;;;;6246757;23;19900;-85
2022/03/13 10:22:19;;;;;;;;;;;999.10;332.80;;;;;;6222926;23;20327;-85
2022/03/13 10:24:46;;;;;;;;;;;999.10;332.80;;;;;;6095304;23;19909;-84
2022/03/13 10:27:13;;;;;;;;;;;998.80;332.80;;;;;;6095411;23;19999;-83
2022/03/13 10:29:39;;;;;;;;;;;896.50;256.00;;;;;;6072027;23;19924;-84
2022/03/13 10:32:05;;;;;;;;;;;794.30;281.60;;;;;;6071950;23;19905;-84
2022/03/13 10:34:31;;;;;;;;;;;692.00;256.00;;;;;;6072084;23;20390;-88
2022/03/13 10:36:57;;;;;;;;;;;640.50;307.20;;;;;;6071843;23;20417;-87
2022/03/13 10:39:23;;;;;;;;;;;589.20;358.40;;;;;;6072355;23;19909;-87
2022/03/13 10:41:56;;;;;;;;;;;538.00;384.00;;;;;;6096157;23;19936;-85
2022/03/13 10:44:24;;;;;;;;;;;512.80;384.00;;;;;;6071913;23;19909;-84
2022/03/13 10:47:05;;;;;;;;;;;512.20;409.60;;;;;;6072016;23;20351;-88
2022/03/13 10:49:44;;;;;;;;;;;487.10;460.80;;;;;;6071959;23;19905;-85
2022/03/13 10:52:25;;;;;;;;;;;461.50;486.40;;;;;;6071839;23;19901;-85
2022/03/13 10:54:52;;;;;;;;;;;461.20;486.40;;;;;;6096075;23;19909;-86
2022/03/13 10:57:19;;;;;;;;;;;435.70;768.00;;;;;;6096124;23;19928;-83
2022/03/13 10:59:45;;;;;;;;;;;435.50;486.40;;;;;;6071957;23;19901;-84
2022/03/13 11:02:12;;;;;;;;;;;435.30;512.00;;;;;;6211843;23;19900;-86
2022/03/13 11:04:55;;;;;;;;;;;410.50;512.00;;;;;;6220566;23;19993;-85
2022/03/13 11:07:21;;;;;;;;;;;409.60;537.60;;;;;;6216113;23;19903;-85
2022/03/13 11:09:47;;;;;;;;;;;409.70;512.00;;;;;;6219906;23;20313;-86
2022/03/13 11:12:20;;;;;;;;;;;410.10;512.00;;;;;;6220098;23;19922;-85
2022/03/13 11:14:50;;;;;;;;;;;410.10;512.00;;;;;;6220336;23;19900;-86
2022/03/13 11:17:18;;;;;;;;;;;384.70;563.20;;;;;;6220433;23;19900;-84
2022/03/13 11:19:46;;;;;;;;;;;384.30;537.60;;;;;;6220392;23;19906;-84
2022/03/13 11:22:12;;;;;;;;;;;;;;;;;;6220421;23;19954;-87
2022/03/13 11:24:38;;;;;;;;;;;359.20;512.00;;;;;;6246832;23;19935;-85
2022/03/13 11:27:07;;;;;;;;;;;384.00;486.40;;;;;;6220055;23;20305;-84
2022/03/13 11:29:43;;;;;;;;;;;384.00;486.40;;;;;;6220323;23;19965;-85
2022/03/13 11:32:27;;;;;;;;;;;384.00;537.60;;;;;;6220303;23;20254;-84
2022/03/13 11:35:16;;;;;;;;;;;384.00;537.60;;;;;;6220351;23;19904;-86
2022/03/13 11:37:42;;;;;;;;;;;384.00;512.00;;;;;;6219805;23;19915;-88
2022/03/13 11:40:09;;;;;;;;;;;359.30;537.60;;;;;;6219916;23;19903;-85
2022/03/13 11:42:48;;;;;;;;;;;384.10;512.00;;;;;;6245732;23;19907;-86
2022/03/13 11:45:40;;;;;;;;;;;384.20;512.00;;;;;;6246762;23;19969;-87
2022/03/13 11:48:12;;;;;;;;;;;384.20;486.40;;;;;;6238332;23;19936;-84
2022/03/13 11:50:54;;;;;;;;;;;384.00;512.00;;;;;;6220144;23;19982;-87
2022/03/13 11:53:21;;;;;;;;;;;384.20;537.60;;;;;;6246839;23;20320;-86
2022/03/13 11:56:13;;;;;;;;;;;384.20;512.00;;;;;;6220207;23;20331;-85
2022/03/13 11:58:46;;;;;;;;;;;384.20;537.60;;;;;;6239779;23;19900;-86
2022/03/13 12:01:21;;;;;;;;;;;384.00;537.60;;;;;;6220011;23;19949;-85
2022/03/13 12:04:05;;;;;;;;;;;384.00;512.00;;;;;;6216798;23;19915;-88
2022/03/13 12:06:43;;;;;;;;;;;384.30;537.60;;;;;;6247027;23;19904;-85
2022/03/13 12:09:11;;;;;;;;;;;384.30;537.60;;;;;;6220313;23;19900;-84
2022/03/13 12:11:47;;;;;;;;;;;384.50;537.60;;;;;;6220532;23;20237;-86
2022/03/13 12:14:14;;;;;;;;;;;384.60;537.60;;;;;;6220098;23;19903;-85
2022/03/13 12:16:41;;;;;;;;;;;384.60;537.60;;;;;;6217204;23;20267;-84
2022/03/13 12:19:07;;;;;;;;;;;384.70;563.20;;;;;;6218562;23;19899;-84
2022/03/13 12:21:33;;;;;;;;;;;384.50;563.20;;;;;;6217987;23;19906;-85
2022/03/13 12:24:32;;;;;;;;;;;384.70;537.60;;;;;;6246731;23;19990;-87
2022/03/13 12:27:01;;;;;;;;;;;384.50;563.20;;;;;;6094048;23;19909;-86
2022/03/13 12:29:28;;;;;;;;;;;384.10;537.60;;;;;;6095733;23;19988;-79
2022/03/13 12:31:54;;;;;;;;;;;384.40;537.60;;;;;;6071434;23;19907;-84
2022/03/13 12:34:26;;;;;;;;;;;384.00;563.20;;;;;;6095421;23;19984;-78
2022/03/13 12:36:53;;;;;;;;;;;384.10;537.60;;;;;;6096768;23;19913;-84
2022/03/13 12:39:19;;;;;;;;;;;384.50;563.20;;;;;;6073126;23;19913;-80
2022/03/13 12:41:54;;;;;;;;;;;435.70;537.60;;;;;;6071225;23;20311;-84
2022/03/13 12:44:20;;;;;;;;;;;512.30;486.40;;;;;;6095450;23;19917;-83
2022/03/13 12:46:51;;;;;;;;;;;640.70;332.80;;;;;;6072059;23;20370;-84
2022/03/13 12:49:19;;;;;;;;;;;743.30;307.20;;;;;;6095904;23;20238;-82
2022/03/13 12:51:46;;;;;;;;;;;794.00;307.20;;;;;;6072651;23;20330;-81
2022/03/13 12:54:12;;;;;;;;;;;871.00;256.00;;;;;;6072493;23;20363;-80
2022/03/13 12:56:43;;;;;;;;;;;870.40;256.00;;;;;;6096547;23;19951;-79
2022/03/13 12:59:20;;;;;;;;;;;845.00;281.60;;;;;;6096462;23;19905;-79
2022/03/13 13:01:45;;;;;;;;;;;845.10;256.00;;;;;;6072382;23;19902;-81
2022/03/13 13:04:13;;;;;;;;;;;870.40;256.00;;;;;;6230210;23;19911;-78
2022/03/13 13:06:40;;;;;;;;;;;947.20;281.60;;;;;;6247721;23;19931;-78
2022/03/13 13:09:05;;;;;;;;;;;973.30;307.20;;;;;;6247752;23;19900;-78
2022/03/13 13:11:33;;;;;;;;;;;948.10;281.60;;;;;;6247421;23;20026;-81
2022/03/13 13:13:59;;;;;;;;;;;896.40;256.00;;;;;;6247581;23;19906;-81
2022/03/13 13:16:29;;;;;;;;;;;896.00;256.00;;;;;;6247655;23;19903;-79
2022/03/13 13:18:55;;;;;;;;;;;972.80;307.20;;;;;;6247815;23;19921;-80
2022/03/13 13:21:34;;;;;;;;;;;998.40;332.80;;;;;;6220518;23;19974;-79
2022/03/13 13:24:00;;;;;;;;;;;1050.10;358.40;;;;;;6247356;23;20308;-78
2022/03/13 13:26:40;;;;;;;;;;;1126.50;409.60;;;;;;6247355;23;19903;-81
2022/03/13 13:29:06;;;;;;;;;;;;;;;;;;6220795;23;19922;-83
2022/03/13 13:31:31;;;;;;;;;;;1203.30;435.20;;;;;;6247475;23;19906;-78
2022/03/13 13:33:58;;;;;;;;;;;1177.80;409.60;;;;;;6220606;23;19907;-83
2022/03/13 13:36:23;;;;;;;;;;;1152.70;409.60;;;;;;6246772;23;19906;-81
2022/03/13 13:39:03;;;;;;;;;;;1152.10;409.60;;;;;;6220201;23;19931;-84
2022/03/13 13:41:29;;;;;;;;;;;1152.10;409.60;;;;;;6247422;23;19953;-82
2022/03/13 13:43:55;;;;;;;;;;;1178.20;409.60;;;;;;6220076;23;20317;-83
2022/03/13 13:46:28;;;;;;;;;;;1177.60;409.60;;;;;;6220122;23;19907;-82
2022/03/13 13:48:54;;;;;;;;;;;1203.30;435.20;;;;;;6220529;23;19900;-84
2022/03/13 13:51:21;;;;;;;;;;;1203.80;435.20;;;;;;6220364;23;19904;-80
2022/03/13 13:53:50;;;;;;;;;;;1204.00;435.20;;;;;;6247414;23;19945;-79
2022/03/13 13:56:22;;;;;;;;;;;1228.90;460.80;;;;;;6247395;23;19899;-82
2022/03/13 13:58:48;;;;;;;;;;;1229.10;460.80;;;;;;6247367;23;19926;-80
2022/03/13 14:01:19;;;;;;;;;;;1229.40;460.80;;;;;;6247156;23;20312;-79
2022/03/13 14:03:45;;;;;;;;;;;1229.40;460.80;;;;;;6220336;23;19946;-79
2022/03/13 14:06:11;;;;;;;;;;;1228.90;460.80;;;;;;6247254;23;19903;-80
2022/03/13 14:08:36;;;;;;;;;;;1203.90;435.20;;;;;;6247267;23;19903;-79
2022/03/13 14:11:02;;;;;;;;;;;1228.80;460.80;;;;;;6247183;23;19939;-79
2022/03/13 14:13:29;;;;;;;;;;;1203.80;435.20;;;;;;6219629;23;19926;-80
2022/03/13 14:15:55;;;;;;;;;;;1203.90;435.20;;;;;;6246858;23;19900;-79
2022/03/13 14:18:20;;;;;;;;;;;1203.50;435.20;;;;;;6246027;23;19906;-79
2022/03/13 14:20:46;;;;;;;;;;;1203.30;435.20;;;;;;6219106;23;19939;-79
2022/03/13 14:23:12;;;;;;;;;;;1127.00;409.60;;;;;;6218746;23;20423;-79
2022/03/13 14:25:41;;;;;;;;;;;947.50;281.60;;;;;;6219435;23;20245;-79
2022/03/13 14:28:07;;;;;;;;;;;819.80;230.40;;;;;;6247063;23;19899;-79
2022/03/13 14:30:33;;;;;;;;;;;717.50;256.00;;;;;;6220219;23;20313;-79
2022/03/13 14:32:58;;;;;;;;;;;640.80;256.00;;;;;;6220121;23;19900;-79
2022/03/13 14:35:24;;;;;;;;;;;614.70;332.80;;;;;;6220139;23;19938;-79
2022/03/13 14:37:50;;;;;;;;;;;589.20;332.80;;;;;;6219864;23;19938;-79
2022/03/13 14:40:15;;;;;;;;;;;563.70;358.40;;;;;;6220102;23;20322;-79
2022/03/13 14:42:41;;;;;;;;;;;537.70;384.00;;;;;;6246543;23;19899;-82
2022/03/13 14:45:07;;;;;;;;;;;512.80;384.00;;;;;;6220153;23;19914;-79
2022/03/13 14:47:32;;;;;;;;;;;487.10;384.00;;;;;;6220095;23;19899;-79
2022/03/13 14:50:01;;;;;;;;;;;486.50;435.20;;;;;;6247031;23;19904;-79
2022/03/13 14:52:27;;;;;;;;;;;461.30;460.80;;;;;;6220211;23;19899;-78
2022/03/13 14:54:53;;;;;;;;;;;460.80;460.80;;;;;;6246944;23;20229;-79
2022/03/13 14:57:19;;;;;;;;;;;460.80;460.80;;;;;;6219875;23;19903;-79
2022/03/13 14:59:44;;;;;;;;;;;436.00;435.20;;;;;;6220089;23;20339;-79
2022/03/13 15:02:10;;;;;;;;;;;435.80;435.20;;;;;;6246587;23;19974;-79
2022/03/13 15:04:36;;;;;;;;;;;435.90;460.80;;;;;;6243868;23;19911;-80
2022/03/13 15:07:01;;;;;;;;;;;435.70;486.40;;;;;;6246004;23;20305;-77
2022/03/13 15:09:27;;;;;;;;;;;435.20;486.40;;;;;;6219808;23;19900;-79
2022/03/13 15:11:53;;;;;;;;;;;410.40;512.00;;;;;;6220195;23;20202;-79
2022/03/13 15:14:18;;;;;;;;;;;410.10;512.00;;;;;;6247062;23;20340;-78
2022/03/13 15:16:44;;;;;;;;;;;410.10;512.00;;;;;;6246934;23;19969;-81
2022/03/13 15:19:11;;;;;;;;;;;409.90;512.00;;;;;;6219935;23;20268;-80
2022/03/13 15:21:36;;;;;;;;;;;409.80;512.00;;;;;;6246889;23;19901;-79
2022/03/13 15:24:02;;;;;;;;;;;409.60;512.00;;;;;;6246797;23;20339;-79
2022/03/13 15:26:28;;;;;;;;;;;384.90;486.40;;;;;;6219141;23;19907;-80
2022/03/13 15:28:54;;;;;;;;;;;384.70;537.60;;;;;;6246744;23;20232;-79
2022/03/13 15:31:19;;;;;;;;;;;384.50;537.60;;;;;;6220066;23;19942;-83
2022/03/13 15:33:45;;;;;;;;;;;384.20;537.60;;;;;;6246488;23;20267;-79
2022/03/13 15:36:11;;;;;;;;;;;384.00;537.60;;;;;;6246564;23;20304;-82
2022/03/13 15:38:38;;;;;;;;;;;359.30;563.20;;;;;;6220529;23;20249;-80
2022/03/13 15:41:03;;;;;;;;;;;359.10;588.80;;;;;;6219973;23;19904;-79
2022/03/13 15:43:31;;;;;;;;;;;359.00;588.80;;;;;;6219679;23;20274;-82
2022/03/13 15:45:57;;;;;;;;;;;358.90;588.80;;;;;;6219950;23;19899;-81
2022/03/13 15:48:23;;;;;;;;;;;358.70;640.00;;;;;;6219877;23;20328;-79
2022/03/13 15:50:49;;;;;;;;;;;358.60;588.80;;;;;;6219844;23;19906;-80
2022/03/13 15:53:14;;;;;;;;;;;358.50;614.40;;;;;;6220202;23;20313;-81
2022/03/13 15:55:40;;;;;;;;;;;358.40;640.00;;;;;;6219785;23;19906;-79
2022/03/13 15:58:06;;;;;;;;;;;;;;;;;;6246793;23;19904;-80
2022/03/13 16:00:32;;;;;;;;;;;358.40;614.40;;;;;;6220020;23;19899;-81
2022/03/13 16:02:58;;;;;;;;;;;333.60;640.00;;;;;;6219904;23;19910;-80
2022/03/13 16:05:24;;;;;;;;;;;333.30;640.00;;;;;;6246291;23;19994;-82
2022/03/13 16:07:49;;;;;;;;;;;333.30;640.00;;;;;;6219949;23;19931;-80
2022/03/13 16:10:15;;;;;;;;;;;333.30;640.00;;;;;;6221765;23;19907;-80
2022/03/13 16:12:41;;;;;;;;;;;333.20;640.00;;;;;;6248388;23;19983;-81
2022/03/13 16:15:08;;;;;;;;;;;333.10;793.60;;;;;;6221621;23;19950;-81
2022/03/13 16:17:35;;;;;;;;;;;332.80;665.60;;;;;;6221413;23;20427;-82
2022/03/13 16:20:00;;;;;;;;;;;308.10;614.40;;;;;;6248672;23;19899;-83
2022/03/13 16:22:27;;;;;;;;;;;307.90;640.00;;;;;;6221717;23;20303;-80
2022/03/13 16:24:53;;;;;;;;;;;307.80;640.00;;;;;;6221414;23;19907;-85
2022/03/13 16:27:19;;;;;;;;;;;307.70;665.60;;;;;;6221327;23;19953;-85
2022/03/13 16:29:45;;;;;;;;;;;307.60;665.60;;;;;;6221377;23;19903;-84
2022/03/13 16:32:12;;;;;;;;;;;307.50;665.60;;;;;;6248087;23;19899;-83
2022/03/13 16:34:38;;;;;;;;;;;307.40;665.60;;;;;;6221003;23;19907;-83
2022/03/13 16:37:04;;;;;;;;;;;307.30;665.60;;;;;;6220843;23;19908;-83
2022/03/13 16:39:30;;;;;;;;;;;;;;;;;;6221238;23;19899;-83
2022/03/13 16:41:55;;;;;;;;;;;282.50;742.40;;;;;;6220580;23;19906;-83
2022/03/13 16:44:21;;;;;;;;;;;307.20;691.20;;;;;;6220989;23;19914;-82
2022/03/13 16:46:46;;;;;;;;;;;282.20;665.60;;;;;;6247145;23;19900;-83
2022/03/13 16:49:12;;;;;;;;;;;282.10;691.20;;;;;;6220859;23;19900;-83
2022/03/13 16:51:38;;;;;;;;;;;282.00;691.20;;;;;;6221062;23;19935;-85
2022/03/13 16:54:04;;;;;;;;;;;281.80;742.40;;;;;;6220959;23;19904;-82
2022/03/13 16:56:30;;;;;;;;;;;;;;;;;;6247501;23;19903;-84
2022/03/13 16:58:56;;;;;;;;;;;;;;;;;;6220938;23;19906;-83
2022/03/13 17:01:22;;;;;;;;;;;;;;;;;;6220972;23;19938;-80
2022/03/13 17:03:48;;;;;;;;;;;;;;;;;;6220906;23;19903;-81
2022/03/13 17:06:14;;;;;;;;;;;;;;;;;;6221009;23;20336;-80
2022/03/13 17:08:40;;;;;;;;;;;;;;;;;;6220509;23;19900;-86
2022/03/13 17:11:06;;;;;;;;;;;;;;;;;;6220842;23;20308;-83
2022/03/13 17:13:32;;;;;;;;;;;;;;;;;;6220929;23;19900;-81
2022/03/13 17:15:58;;;;;;;;;;;;;;;;;;6220703;23;19930;-83
2022/03/13 17:18:25;;;;;;;;;;;256.20;691.20;;;;;;6220703;23;19953;-82
2022/03/13 17:20:51;;;;;;;;;;;256.20;921.60;;;;;;6220429;23;19900;-84
2022/03/13 17:23:17;;;;;;;;;;;256.10;691.20;;;;;;6220958;23;19905;-84
2022/03/13 17:25:43;;;;;;;;;;;256.00;716.80;;;;;;6221259;23;19914;-82
2022/03/13 17:28:09;;;;;;;;;;;;;;;;;;6247977;23;19907;-82
2022/03/13 17:30:35;;;;;;;;;;;;;;;;;;6220986;23;19899;-83
2022/03/13 17:33:02;;;;;;;;;;;;;;;;;;6247683;23;19907;-82
2022/03/13 17:35:28;;;;;;;;;;;;;;;;;;6221053;23;19899;-84
2022/03/13 17:37:54;;;;;;;;;;;;;;;;;;6220853;23;19919;-84
2022/03/13 17:40:20;;;;;;;;;;;231.00;716.80;;;;;;6221081;23;19962;-81
2022/03/13 17:42:47;;;;;;;;;;;231.00;716.80;;;;;;6220868;23;20272;-82
2022/03/13 19:23:04;;;;;;;;;;;179.70;896.00;;;;;;6239640;22;19922;-79
2022/03/13 19:26:03;;;;;;;;;;;179.70;972.80;;;;;;6240030;22;19924;-78
2022/03/13 19:59:19;;;;;;;;;;;179.40;921.60;;;;;;6242117;23;19948;-79
2022/03/13 20:02:05;;;;;;;;;;;179.40;921.60;;;;;;6197272;23;19904;-76
2022/03/13 20:41:33;;;;;;;;;;;154.20;947.20;;;;;;6238133;23;19907;-79
2022/03/13 20:47:23;;;;;;;;;;;154.20;972.80;;;;;;6143639;23;19920;-77
2022/03/13 20:49:49;;;;;;;;;;;154.20;972.80;;;;;;6113181;23;19912;-76
2022/03/13 20:52:15;;;;;;;;;;;154.10;947.20;;;;;;6138168;23;19979;-76
2022/03/13 20:54:44;;;;;;;;;;;154.10;972.80;;;;;;6137311;23;19981;-76
2022/03/13 20:57:12;;;;;;;;;;;154.00;1049.60;;;;;;6132281;23;19912;-76
2022/03/13 20:59:37;;;;;;;;;;;153.80;972.80;;;;;;6139756;23;19908;-79
2022/03/13 21:02:04;;;;;;;;;;;153.80;998.40;;;;;;6113687;23;20281;-77
2022/03/13 21:04:30;;;;;;;;;;;153.70;1024.00;;;;;;6142157;23;19932;-79
2022/03/13 21:07:02;;;;;;;;;;;153.70;1024.00;;;;;;6147462;23;19892;-79
2022/03/13 21:09:29;;;;;;;;;;;153.70;1024.00;;;;;;6148574;23;19901;-78
2022/03/13 21:11:56;;;;;;;;;;;179.60;998.40;;;;;;6148596;23;19905;-79
2022/03/13 21:14:24;;;;;;;;;;;153.60;998.40;;;;;;6121824;23;19933;-78
2022/03/13 21:16:56;;;;;;;;;;;153.60;998.40;;;;;;6149846;23;19921;-79
2022/03/13 21:19:30;;;;;;;;;;;153.60;998.40;;;;;;6149756;23;19885;-79
2022/03/13 21:21:58;;;;;;;;;;;128.80;1049.60;;;;;;6149328;23;19885;-79
2022/03/13 21:24:31;;;;;;;;;;;128.50;1049.60;;;;;;6150579;23;19945;-79
2022/03/13 21:27:01;;;;;;;;;;;128.70;1024.00;;;;;;6125591;23;20420;-79
2022/03/13 21:29:34;;;;;;;;;;;128.50;1024.00;;;;;;6150986;23;19901;-79
2022/03/13 21:32:05;;;;;;;;;;;128.30;1024.00;;;;;;6149251;23;20116;-78
2022/03/13 21:34:35;;;;;;;;;;;128.10;1408.00;;;;;;6177626;23;19949;-76
2022/03/13 21:37:03;;;;;;;;;;;128.10;1100.80;;;;;;6145070;23;19911;-77
2022/03/13 21:39:30;;;;;;;;;;;128.00;1049.60;;;;;;6195225;23;19936;-77
2022/03/13 21:41:59;;;;;;;;;;;103.30;1075.20;;;;;;6192364;23;19900;-77
2022/03/13 21:44:24;;;;;;;;;;;103.20;1075.20;;;;;;6175262;23;19908;-77
2022/03/13 21:46:50;;;;;;;;;;;103.20;1100.80;;;;;;6169387;23;19916;-78
2022/03/13 21:49:16;;;;;;;;;;;103.20;1100.80;;;;;;6175290;23;19901;-81
2022/03/13 21:51:45;;;;;;;;;;;103.30;1049.60;;;;;;6212099;23;19884;-77
2022/03/13 21:54:11;;;;;;;;;;;103.30;1075.20;;;;;;6209005;23;19935;-79
2022/03/13 21:57:00;;;;;;;;;;;103.30;1100.80;;;;;;6203350;23;19945;-79
2022/03/13 21:59:27;;;;;;;;;;;103.30;1075.20;;;;;;6204962;23;19891;-78
2022/03/13 22:01:53;;;;;;;;;;;103.30;1075.20;;;;;;6176751;23;20241;-76
2022/03/13 22:04:19;;;;;;;;;;;103.20;1126.40;;;;;;6209325;23;19895;-78
2022/03/13 22:06:46;;;;;;;;;;;128.00;1126.40;;;;;;6174402;23;19904;-76
2022/03/13 22:09:17;;;;;;;;;;;103.00;1126.40;;;;;;6177912;23;19900;-76
2022/03/13 22:11:46;;;;;;;;;;;103.00;1126.40;;;;;;6201094;23;19895;-76
2022/03/13 22:14:17;;;;;;;;;;;103.00;1126.40;;;;;;6204195;23;19907;-78
2022/03/13 22:16:45;;;;;;;;;;;103.00;1100.80;;;;;;6200726;23;19908;-79
2022/03/13 22:19:13;;;;;;;;;;;103.00;1100.80;;;;;;6202780;23;19958;-76
2022/03/13 22:21:39;;;;;;;;;;;103.00;1075.20;;;;;;6176192;23;19941;-76
2022/03/13 22:24:06;;;;;;;;;;;103.00;1126.40;;;;;;6203174;23;19904;-76
2022/03/13 22:26:32;;;;;;;;;;;103.00;1126.40;;;;;;6174160;23;19900;-78
2022/03/13 22:28:58;;;;;;;;;;;103.00;1100.80;;;;;;6204099;23;19943;-75
2022/03/13 22:31:23;;;;;;;;;;;103.00;1075.20;;;;;;6198047;23;19900;-75
2022/03/13 22:33:49;;;;;;;;;;;103.00;1126.40;;;;;;6180473;23;20062;-81
2022/03/13 22:36:15;;;;;;;;;;;103.00;1152.00;;;;;;6179696;23;19900;-78
2022/03/13 22:38:51;;;;;;;;;;;102.90;1126.40;;;;;;6184613;23;19897;-83
2022/03/13 22:41:16;;;;;;;;;;;102.80;1152.00;;;;;;6207084;23;19885;-80
2022/03/13 22:43:42;;;;;;;;;;;102.80;1177.60;;;;;;6211954;23;19895;-78
2022/03/13 22:46:29;;;;;;;;;;;102.70;1664.00;;;;;;6221676;23;19931;-81
2022/03/13 22:48:54;;;;;;;;;;;102.80;1126.40;;;;;;6240120;23;19887;-76
2022/03/13 22:51:30;;;;;;;;;;;102.80;1126.40;;;;;;6240850;23;19911;-75
2022/03/13 22:53:58;;;;;;;;;;;102.80;1126.40;;;;;;6243022;22;19888;-79
2022/03/13 22:56:31;;;;;;;;;;;102.70;1152.00;;;;;;6216341;23;19927;-76
2022/03/13 22:59:25;;;;;;;;;;;102.70;1126.40;;;;;;6242550;22;19912;-76
2022/03/13 23:01:54;;;;;;;;;;;102.70;1126.40;;;;;;6214291;23;19920;-78
2022/03/13 23:04:22;;;;;;;;;;;102.70;1766.40;;;;;;6240438;22;19919;-76
2022/03/13 23:06:48;;;;;;;;;;;102.60;1152.00;;;;;;6241322;22;19888;-77
2022/03/13 23:09:17;;;;;;;;;;;102.50;1152.00;;;;;;6216904;23;19895;-76
2022/03/13 23:11:43;;;;;;;;;;;102.50;1152.00;;;;;;6216025;23;19904;-80
2022/03/13 23:14:09;;;;;;;;;;;;;;;;;;6240381;22;19888;-76
2022/03/13 23:16:45;;;;;;;;;;;;;;;;;;6243028;22;19888;-77
2022/03/13 23:19:31;;;;;;;;;;;;;;;;;;6240629;22;19888;-77
2022/03/13 23:22:41;;;;;;;;;;;77.70;1612.80;;;;;;6232692;22;19904;-77
2022/03/13 23:25:28;;;;;;;;;;;77.50;1177.60;;;;;;6212798;23;19896;-77
2022/03/13 23:28:11;;;;;;;;;;;77.50;1228.80;;;;;;6212291;23;19885;-77
2022/03/13 23:30:37;;;;;;;;;;;;;;;;;;6212418;23;20201;-77
2022/03/13 23:33:09;;;;;;;;;;;;;;;;;;6182135;23;19904;-76
2022/03/13 23:35:40;;;;;;;;;;;77.60;1280.00;;;;;;6203842;23;19916;-76
2022/03/13 23:38:20;;;;;;;;;;;77.50;1689.60;;;;;;6202280;23;19908;-77
2022/03/13 23:40:46;;;;;;;;;;;;;;;;;;6200983;23;19912;-76
2022/03/13 23:43:15;;;;;;;;;;;;;;;;;;6199623;23;19904;-76
2022/03/13 23:45:55;;;;;;;;;;;;;;;;;;6201466;23;19971;-76
2022/03/13 23:48:21;;;;;;;;;;;;;;;;;;6174288;23;19916;-77
2022/03/13 23:50:47;;;;;;;;;;;;;;;;;;6173741;23;19911;-77
2022/03/13 23:53:13;;;;;;;;;;;;;;;;;;6175017;23;19904;-76
2022/03/13 23:55:39;;;;;;;;;;;;;;;;;;6185399;23;19908;-76
2022/03/13 23:58:05;;;;;;;;;;;;;;;;;;6232559;22;19911;-77
